ADDS METAR Data INFO
IDs: Format: Raw Decoded Include TAF

Data at: 1147 UTC 20 May 2018

METAR for:EGNX (Nottingham/E Midland, --, UK)
Text:EGNX 201120Z 08006KT 010V140 9999 FEW046 20/09 Q1022
Temperature: 20.0°C ( 68°F)
Dewpoint: 9.0°C ( 48°F) [RH = 49%]
Pressure (altimeter):30.18 inches Hg (1022.0 mb)
Winds:from the E (80 degrees) at 7 MPH (6 knots; 3.1 m/s)
Visibility:6 or more sm (10+ km)
Ceiling:at least 12,000 feet AGL
Clouds: few clouds at 4600 feet AGL